sensor_id;sensor_type;location;lat;lon;timestamp;P1;durP1;ratioP1;P2;durP2;ratioP2
46505;SDS011;32220;49.808;9.968;2024-03-22T00:02:17;13.17;;;8.40;;
46505;SDS011;32220;49.808;9.968;2024-03-22T00:04:44;10.37;;;7.97;;
46505;SDS011;32220;49.808;9.968;2024-03-22T00:07:11;10.33;;;7.77;;
46505;SDS011;32220;49.808;9.968;2024-03-22T00:09:37;13.43;;;8.10;;
46505;SDS011;32220;49.808;9.968;2024-03-22T00:12:05;11.83;;;8.00;;
46505;SDS011;32220;49.808;9.968;2024-03-22T00:14:33;8.90;;;6.70;;
46505;SDS011;32220;49.808;9.968;2024-03-22T00:17:01;8.90;;;6.43;;
46505;SDS011;32220;49.808;9.968;2024-03-22T00:19:27;14.80;;;9.10;;
46505;SDS011;32220;49.808;9.968;2024-03-22T00:21:55;11.23;;;8.60;;
46505;SDS011;32220;49.808;9.968;2024-03-22T00:24:21;16.87;;;10.10;;
46505;SDS011;32220;49.808;9.968;2024-03-22T00:26:49;12.77;;;9.87;;
46505;SDS011;32220;49.808;9.968;2024-03-22T00:29:15;14.23;;;10.03;;
46505;SDS011;32220;49.808;9.968;2024-03-22T00:31:44;14.67;;;10.53;;
46505;SDS011;32220;49.808;9.968;2024-03-22T00:34:10;14.30;;;10.20;;
46505;SDS011;32220;49.808;9.968;2024-03-22T00:36:38;10.63;;;8.37;;
46505;SDS011;32220;49.808;9.968;2024-03-22T00:39:04;12.30;;;8.70;;
46505;SDS011;32220;49.808;9.968;2024-03-22T00:41:32;10.77;;;7.60;;
46505;SDS011;32220;49.808;9.968;2024-03-22T00:43:58;12.53;;;8.43;;
46505;SDS011;32220;49.808;9.968;2024-03-22T00:46:26;12.57;;;9.10;;
46505;SDS011;32220;49.808;9.968;2024-03-22T00:48:53;11.43;;;7.77;;
46505;SDS011;32220;49.808;9.968;2024-03-22T00:51:21;10.23;;;7.57;;
46505;SDS011;32220;49.808;9.968;2024-03-22T00:53:48;9.77;;;7.50;;
46505;SDS011;32220;49.808;9.968;2024-03-22T00:56:15;9.60;;;6.53;;
46505;SDS011;32220;49.808;9.968;2024-03-22T00:58:42;12.27;;;7.30;;
46505;SDS011;32220;49.808;9.968;2024-03-22T01:01:09;9.60;;;7.23;;
46505;SDS011;32220;49.808;9.968;2024-03-22T01:03:35;10.87;;;7.40;;
46505;SDS011;32220;49.808;9.968;2024-03-22T01:06:04;8.23;;;6.37;;
46505;SDS011;32220;49.808;9.968;2024-03-22T01:08:31;10.27;;;6.93;;
46505;SDS011;32220;49.808;9.968;2024-03-22T01:10:59;9.10;;;6.43;;
46505;SDS011;32220;49.808;9.968;2024-03-22T01:13:25;11.13;;;7.40;;
46505;SDS011;32220;49.808;9.968;2024-03-22T01:15:52;11.67;;;7.17;;
46505;SDS011;32220;49.808;9.968;2024-03-22T01:18:19;10.10;;;7.40;;
46505;SDS011;32220;49.808;9.968;2024-03-22T01:20:46;9.00;;;6.47;;
46505;SDS011;32220;49.808;9.968;2024-03-22T01:23:14;11.33;;;7.17;;
46505;SDS011;32220;49.808;9.968;2024-03-22T01:25:42;9.73;;;7.17;;
46505;SDS011;32220;49.808;9.968;2024-03-22T01:28:08;9.90;;;6.47;;
46505;SDS011;32220;49.808;9.968;2024-03-22T01:30:36;8.80;;;6.27;;
46505;SDS011;32220;49.808;9.968;2024-03-22T01:33:02;9.63;;;7.13;;
46505;SDS011;32220;49.808;9.968;2024-03-22T01:35:30;8.60;;;6.67;;
46505;SDS011;32220;49.808;9.968;2024-03-22T01:37:56;9.83;;;6.83;;
46505;SDS011;32220;49.808;9.968;2024-03-22T01:40:25;10.93;;;6.97;;
46505;SDS011;32220;49.808;9.968;2024-03-22T01:42:52;8.87;;;6.20;;
46505;SDS011;32220;49.808;9.968;2024-03-22T01:45:20;8.63;;;6.13;;
46505;SDS011;32220;49.808;9.968;2024-03-22T01:47:50;9.70;;;6.43;;
46505;SDS011;32220;49.808;9.968;2024-03-22T01:50:19;11.07;;;7.23;;
46505;SDS011;32220;49.808;9.968;2024-03-22T01:52:46;11.33;;;7.80;;
46505;SDS011;32220;49.808;9.968;2024-03-22T01:55:14;9.30;;;6.37;;
46505;SDS011;32220;49.808;9.968;2024-03-22T01:57:42;9.43;;;6.30;;
46505;SDS011;32220;49.808;9.968;2024-03-22T02:00:13;10.00;;;7.33;;
46505;SDS011;32220;49.808;9.968;2024-03-22T02:02:40;11.37;;;7.67;;
46505;SDS011;32220;49.808;9.968;2024-03-22T02:05:11;9.17;;;6.60;;
46505;SDS011;32220;49.808;9.968;2024-03-22T02:07:38;8.20;;;5.83;;
46505;SDS011;32220;49.808;9.968;2024-03-22T02:10:06;9.37;;;6.37;;
46505;SDS011;32220;49.808;9.968;2024-03-22T02:12:36;10.23;;;6.40;;
46505;SDS011;32220;49.808;9.968;2024-03-22T02:15:06;8.63;;;6.37;;
46505;SDS011;32220;49.808;9.968;2024-03-22T02:17:35;8.60;;;5.93;;
46505;SDS011;32220;49.808;9.968;2024-03-22T02:20:02;9.77;;;7.07;;
46505;SDS011;32220;49.808;9.968;2024-03-22T02:22:30;10.57;;;7.10;;
46505;SDS011;32220;49.808;9.968;2024-03-22T02:24:58;10.07;;;6.90;;
46505;SDS011;32220;49.808;9.968;2024-03-22T02:27:25;9.53;;;7.33;;
46505;SDS011;32220;49.808;9.968;2024-03-22T02:29:52;11.53;;;7.13;;
46505;SDS011;32220;49.808;9.968;2024-03-22T02:32:19;11.07;;;6.67;;
46505;SDS011;32220;49.808;9.968;2024-03-22T02:34:45;9.03;;;6.70;;
46505;SDS011;32220;49.808;9.968;2024-03-22T02:37:13;10.03;;;6.57;;
46505;SDS011;32220;49.808;9.968;2024-03-22T02:39:39;12.60;;;7.70;;
46505;SDS011;32220;49.808;9.968;2024-03-22T02:42:08;10.63;;;7.57;;
46505;SDS011;32220;49.808;9.968;2024-03-22T02:44:35;12.23;;;7.80;;
46505;SDS011;32220;49.808;9.968;2024-03-22T02:47:08;10.70;;;7.03;;
46505;SDS011;32220;49.808;9.968;2024-03-22T02:49:35;9.30;;;6.50;;
46505;SDS011;32220;49.808;9.968;2024-03-22T02:52:03;12.13;;;7.90;;
46505;SDS011;32220;49.808;9.968;2024-03-22T02:54:29;10.00;;;7.20;;
46505;SDS011;32220;49.808;9.968;2024-03-22T02:56:57;10.67;;;7.30;;
46505;SDS011;32220;49.808;9.968;2024-03-22T02:59:26;12.20;;;7.73;;
46505;SDS011;32220;49.808;9.968;2024-03-22T03:01:54;11.17;;;6.87;;
46505;SDS011;32220;49.808;9.968;2024-03-22T03:04:20;12.33;;;7.53;;
46505;SDS011;32220;49.808;9.968;2024-03-22T03:06:48;11.73;;;7.47;;
46505;SDS011;32220;49.808;9.968;2024-03-22T03:09:14;9.53;;;7.07;;
46505;SDS011;32220;49.808;9.968;2024-03-22T03:11:42;13.07;;;8.00;;
46505;SDS011;32220;49.808;9.968;2024-03-22T03:14:08;10.07;;;6.93;;
46505;SDS011;32220;49.808;9.968;2024-03-22T03:16:37;7.93;;;5.90;;
46505;SDS011;32220;49.808;9.968;2024-03-22T03:19:03;10.73;;;7.83;;
46505;SDS011;32220;49.808;9.968;2024-03-22T03:21:31;12.23;;;7.67;;
46505;SDS011;32220;49.808;9.968;2024-03-22T03:23:57;13.17;;;8.43;;
46505;SDS011;32220;49.808;9.968;2024-03-22T03:26:25;12.50;;;7.20;;
46505;SDS011;32220;49.808;9.968;2024-03-22T03:28:52;13.27;;;8.30;;
46505;SDS011;32220;49.808;9.968;2024-03-22T03:31:21;17.43;;;9.40;;
46505;SDS011;32220;49.808;9.968;2024-03-22T03:33:48;12.93;;;8.90;;
46505;SDS011;32220;49.808;9.968;2024-03-22T03:36:16;10.87;;;7.67;;
46505;SDS011;32220;49.808;9.968;2024-03-22T03:38:42;11.93;;;7.67;;
46505;SDS011;32220;49.808;9.968;2024-03-22T03:41:10;11.30;;;7.67;;
46505;SDS011;32220;49.808;9.968;2024-03-22T03:43:36;10.00;;;6.80;;
46505;SDS011;32220;49.808;9.968;2024-03-22T03:46:04;8.93;;;6.73;;
46505;SDS011;32220;49.808;9.968;2024-03-22T03:48:30;10.73;;;6.97;;
46505;SDS011;32220;49.808;9.968;2024-03-22T03:50:59;10.27;;;7.23;;
46505;SDS011;32220;49.808;9.968;2024-03-22T03:53:29;9.97;;;6.53;;
46505;SDS011;32220;49.808;9.968;2024-03-22T03:55:56;10.33;;;7.03;;
46505;SDS011;32220;49.808;9.968;2024-03-22T03:58:23;8.23;;;6.53;;
46505;SDS011;32220;49.808;9.968;2024-03-22T04:00:50;10.07;;;6.63;;
46505;SDS011;32220;49.808;9.968;2024-03-22T04:03:16;9.10;;;6.43;;
46505;SDS011;32220;49.808;9.968;2024-03-22T04:05:45;10.07;;;6.87;;
46505;SDS011;32220;49.808;9.968;2024-03-22T04:08:12;11.73;;;7.60;;
46505;SDS011;32220;49.808;9.968;2024-03-22T04:10:40;13.93;;;7.00;;
46505;SDS011;32220;49.808;9.968;2024-03-22T04:13:07;10.37;;;6.23;;
46505;SDS011;32220;49.808;9.968;2024-03-22T04:15:34;9.73;;;6.60;;
46505;SDS011;32220;49.808;9.968;2024-03-22T04:18:01;11.57;;;7.80;;
46505;SDS011;32220;49.808;9.968;2024-03-22T04:20:28;11.23;;;7.57;;
46505;SDS011;32220;49.808;9.968;2024-03-22T04:22:55;10.63;;;7.30;;
46505;SDS011;32220;49.808;9.968;2024-03-22T04:25:23;12.27;;;7.97;;
46505;SDS011;32220;49.808;9.968;2024-03-22T04:27:50;10.17;;;7.07;;
46505;SDS011;32220;49.808;9.968;2024-03-22T04:30:17;10.90;;;7.07;;
46505;SDS011;32220;49.808;9.968;2024-03-22T04:32:45;12.13;;;8.07;;
46505;SDS011;32220;49.808;9.968;2024-03-22T04:35:13;13.90;;;7.73;;
46505;SDS011;32220;49.808;9.968;2024-03-22T04:37:39;12.53;;;8.07;;
46505;SDS011;32220;49.808;9.968;2024-03-22T04:40:07;12.17;;;7.80;;
46505;SDS011;32220;49.808;9.968;2024-03-22T04:42:38;11.53;;;7.27;;
46505;SDS011;32220;49.808;9.968;2024-03-22T04:45:05;11.80;;;8.17;;
46505;SDS011;32220;49.808;9.968;2024-03-22T04:47:33;12.50;;;7.70;;
46505;SDS011;32220;49.808;9.968;2024-03-22T04:50:00;12.57;;;8.00;;
46505;SDS011;32220;49.808;9.968;2024-03-22T04:52:27;11.87;;;7.20;;
46505;SDS011;32220;49.808;9.968;2024-03-22T04:54:54;11.87;;;7.33;;
46505;SDS011;32220;49.808;9.968;2024-03-22T04:57:21;11.23;;;7.47;;
46505;SDS011;32220;49.808;9.968;2024-03-22T04:59:49;11.97;;;7.37;;
46505;SDS011;32220;49.808;9.968;2024-03-22T05:02:16;9.67;;;6.43;;
46505;SDS011;32220;49.808;9.968;2024-03-22T05:04:43;11.30;;;6.77;;
46505;SDS011;32220;49.808;9.968;2024-03-22T05:07:11;12.23;;;7.87;;
46505;SDS011;32220;49.808;9.968;2024-03-22T05:09:37;11.07;;;7.50;;
46505;SDS011;32220;49.808;9.968;2024-03-22T05:12:05;11.20;;;7.23;;
46505;SDS011;32220;49.808;9.968;2024-03-22T05:14:31;12.80;;;7.83;;
46505;SDS011;32220;49.808;9.968;2024-03-22T05:17:00;11.77;;;7.77;;
46505;SDS011;32220;49.808;9.968;2024-03-22T05:19:26;11.03;;;7.17;;
46505;SDS011;32220;49.808;9.968;2024-03-22T05:21:54;9.07;;;6.60;;
46505;SDS011;32220;49.808;9.968;2024-03-22T05:24:20;10.50;;;7.03;;
46505;SDS011;32220;49.808;9.968;2024-03-22T05:26:47;10.80;;;7.00;;
46505;SDS011;32220;49.808;9.968;2024-03-22T05:29:14;12.97;;;8.20;;
46505;SDS011;32220;49.808;9.968;2024-03-22T05:31:45;9.33;;;6.97;;
46505;SDS011;32220;49.808;9.968;2024-03-22T05:34:14;9.90;;;7.33;;
46505;SDS011;32220;49.808;9.968;2024-03-22T05:36:42;12.03;;;7.07;;
46505;SDS011;32220;49.808;9.968;2024-03-22T05:39:10;9.50;;;6.37;;
46505;SDS011;32220;49.808;9.968;2024-03-22T05:41:36;12.37;;;6.73;;
46505;SDS011;32220;49.808;9.968;2024-03-22T05:44:04;12.03;;;7.27;;
46505;SDS011;32220;49.808;9.968;2024-03-22T05:46:31;11.87;;;7.23;;
46505;SDS011;32220;49.808;9.968;2024-03-22T05:48:58;10.17;;;6.67;;
46505;SDS011;32220;49.808;9.968;2024-03-22T05:51:26;9.27;;;6.27;;
46505;SDS011;32220;49.808;9.968;2024-03-22T05:53:53;9.53;;;6.70;;
46505;SDS011;32220;49.808;9.968;2024-03-22T05:56:20;11.47;;;7.27;;
46505;SDS011;32220;49.808;9.968;2024-03-22T05:58:47;10.13;;;7.23;;
46505;SDS011;32220;49.808;9.968;2024-03-22T06:01:14;11.90;;;7.63;;
46505;SDS011;32220;49.808;9.968;2024-03-22T06:03:41;11.70;;;7.07;;
46505;SDS011;32220;49.808;9.968;2024-03-22T06:06:07;11.20;;;7.90;;
46505;SDS011;32220;49.808;9.968;2024-03-22T06:08:36;11.93;;;7.53;;
46505;SDS011;32220;49.808;9.968;2024-03-22T06:11:05;11.40;;;7.13;;
46505;SDS011;32220;49.808;9.968;2024-03-22T06:13:34;12.47;;;7.90;;
46505;SDS011;32220;49.808;9.968;2024-03-22T06:16:00;12.77;;;8.03;;
46505;SDS011;32220;49.808;9.968;2024-03-22T06:18:28;13.27;;;7.47;;
46505;SDS011;32220;49.808;9.968;2024-03-22T06:20:54;12.53;;;7.50;;
46505;SDS011;32220;49.808;9.968;2024-03-22T06:23:22;13.87;;;9.00;;
46505;SDS011;32220;49.808;9.968;2024-03-22T06:25:54;12.47;;;8.57;;
46505;SDS011;32220;49.808;9.968;2024-03-22T06:28:21;15.00;;;8.90;;
46505;SDS011;32220;49.808;9.968;2024-03-22T06:30:49;12.63;;;8.07;;
46505;SDS011;32220;49.808;9.968;2024-03-22T06:33:15;15.87;;;10.20;;
46505;SDS011;32220;49.808;9.968;2024-03-22T06:35:43;14.63;;;9.77;;
46505;SDS011;32220;49.808;9.968;2024-03-22T06:38:09;16.13;;;9.17;;
46505;SDS011;32220;49.808;9.968;2024-03-22T06:40:37;13.60;;;9.37;;
46505;SDS011;32220;49.808;9.968;2024-03-22T06:43:05;12.33;;;9.00;;
46505;SDS011;32220;49.808;9.968;2024-03-22T06:45:32;14.67;;;9.77;;
46505;SDS011;32220;49.808;9.968;2024-03-22T06:47:59;13.70;;;9.13;;
46505;SDS011;32220;49.808;9.968;2024-03-22T06:50:26;16.70;;;10.07;;
46505;SDS011;32220;49.808;9.968;2024-03-22T06:52:52;13.97;;;10.03;;
46505;SDS011;32220;49.808;9.968;2024-03-22T06:55:20;14.77;;;10.37;;
46505;SDS011;32220;49.808;9.968;2024-03-22T06:57:47;15.40;;;9.83;;
46505;SDS011;32220;49.808;9.968;2024-03-22T07:00:16;17.23;;;10.60;;
46505;SDS011;32220;49.808;9.968;2024-03-22T07:02:43;16.20;;;10.37;;
46505;SDS011;32220;49.808;9.968;2024-03-22T07:05:11;17.63;;;10.50;;
46505;SDS011;32220;49.808;9.968;2024-03-22T07:07:37;15.03;;;9.90;;
46505;SDS011;32220;49.808;9.968;2024-03-22T07:10:05;14.43;;;9.90;;
46505;SDS011;32220;49.808;9.968;2024-03-22T07:12:32;16.87;;;11.90;;
46505;SDS011;32220;49.808;9.968;2024-03-22T07:15:00;15.50;;;11.47;;
46505;SDS011;32220;49.808;9.968;2024-03-22T07:17:29;15.63;;;10.80;;
46505;SDS011;32220;49.808;9.968;2024-03-22T07:19:56;13.07;;;10.70;;
46505;SDS011;32220;49.808;9.968;2024-03-22T07:22:23;15.17;;;9.80;;
46505;SDS011;32220;49.808;9.968;2024-03-22T07:24:50;14.83;;;11.27;;
46505;SDS011;32220;49.808;9.968;2024-03-22T07:27:17;14.30;;;11.07;;
46505;SDS011;32220;49.808;9.968;2024-03-22T07:29:44;13.93;;;10.73;;
46505;SDS011;32220;49.808;9.968;2024-03-22T07:32:11;15.33;;;10.13;;
46505;SDS011;32220;49.808;9.968;2024-03-22T07:34:40;17.40;;;11.03;;
46505;SDS011;32220;49.808;9.968;2024-03-22T07:37:06;14.23;;;10.90;;
46505;SDS011;32220;49.808;9.968;2024-03-22T07:39:33;13.17;;;10.00;;
46505;SDS011;32220;49.808;9.968;2024-03-22T07:42:00;12.13;;;9.57;;
46505;SDS011;32220;49.808;9.968;2024-03-22T07:44:28;12.70;;;9.87;;
46505;SDS011;32220;49.808;9.968;2024-03-22T07:46:55;12.10;;;9.67;;
46505;SDS011;32220;49.808;9.968;2024-03-22T07:49:22;13.43;;;9.40;;
46505;SDS011;32220;49.808;9.968;2024-03-22T07:51:50;10.30;;;8.70;;
46505;SDS011;32220;49.808;9.968;2024-03-22T07:54:19;12.50;;;7.93;;
46505;SDS011;32220;49.808;9.968;2024-03-22T07:56:45;9.90;;;8.00;;
46505;SDS011;32220;49.808;9.968;2024-03-22T07:59:13;10.50;;;8.13;;
46505;SDS011;32220;49.808;9.968;2024-03-22T08:01:39;10.40;;;8.27;;
46505;SDS011;32220;49.808;9.968;2024-03-22T08:04:07;11.00;;;8.07;;
46505;SDS011;32220;49.808;9.968;2024-03-22T08:06:33;9.07;;;7.77;;
46505;SDS011;32220;49.808;9.968;2024-03-22T08:09:02;11.40;;;8.67;;
46505;SDS011;32220;49.808;9.968;2024-03-22T08:11:29;12.00;;;9.27;;
46505;SDS011;32220;49.808;9.968;2024-03-22T08:13:56;10.57;;;9.07;;
46505;SDS011;32220;49.808;9.968;2024-03-22T08:16:28;12.77;;;9.00;;
46505;SDS011;32220;49.808;9.968;2024-03-22T08:18:55;11.70;;;9.57;;
46505;SDS011;32220;49.808;9.968;2024-03-22T08:21:22;11.17;;;9.03;;
46505;SDS011;32220;49.808;9.968;2024-03-22T08:23:50;11.23;;;8.73;;
46505;SDS011;32220;49.808;9.968;2024-03-22T08:26:18;13.23;;;9.73;;
46505;SDS011;32220;49.808;9.968;2024-03-22T08:28:46;12.67;;;10.03;;
46505;SDS011;32220;49.808;9.968;2024-03-22T08:31:13;13.43;;;10.23;;
46505;SDS011;32220;49.808;9.968;2024-03-22T08:33:40;12.23;;;9.70;;
46505;SDS011;32220;49.808;9.968;2024-03-22T08:36:07;10.57;;;8.57;;
46505;SDS011;32220;49.808;9.968;2024-03-22T08:38:35;10.80;;;9.47;;
46505;SDS011;32220;49.808;9.968;2024-03-22T08:41:02;10.80;;;8.38;;
46505;SDS011;32220;49.808;9.968;2024-03-22T08:43:31;10.90;;;8.25;;
46505;SDS011;32220;49.808;9.968;2024-03-22T08:45:57;7.97;;;7.18;;
46505;SDS011;32220;49.808;9.968;2024-03-22T08:48:24;8.23;;;7.20;;
46505;SDS011;32220;49.808;9.968;2024-03-22T08:50:51;11.25;;;7.38;;
46505;SDS011;32220;49.808;9.968;2024-03-22T08:53:18;8.40;;;7.18;;
46505;SDS011;32220;49.808;9.968;2024-03-22T08:55:45;8.57;;;7.68;;
46505;SDS011;32220;49.808;9.968;2024-03-22T08:58:13;7.70;;;6.83;;
46505;SDS011;32220;49.808;9.968;2024-03-22T09:00:42;8.57;;;7.67;;
46505;SDS011;32220;49.808;9.968;2024-03-22T09:03:10;7.40;;;6.27;;
46505;SDS011;32220;49.808;9.968;2024-03-22T09:05:37;7.17;;;6.37;;
46505;SDS011;32220;49.808;9.968;2024-03-22T09:08:04;8.50;;;6.07;;
46505;SDS011;32220;49.808;9.968;2024-03-22T09:10:31;7.73;;;6.03;;
46505;SDS011;32220;49.808;9.968;2024-03-22T09:12:58;7.33;;;5.67;;
46505;SDS011;32220;49.808;9.968;2024-03-22T09:15:25;6.53;;;5.83;;
46505;SDS011;32220;49.808;9.968;2024-03-22T09:17:53;5.90;;;5.27;;
46505;SDS011;32220;49.808;9.968;2024-03-22T09:20:20;7.33;;;5.17;;
46505;SDS011;32220;49.808;9.968;2024-03-22T09:22:47;5.78;;;4.60;;
46505;SDS011;32220;49.808;9.968;2024-03-22T09:25:15;4.82;;;3.55;;
46505;SDS011;32220;49.808;9.968;2024-03-22T09:27:42;4.53;;;3.35;;
46505;SDS011;32220;49.808;9.968;2024-03-22T09:30:09;4.43;;;3.80;;
46505;SDS011;32220;49.808;9.968;2024-03-22T09:32:37;3.63;;;3.30;;
46505;SDS011;32220;49.808;9.968;2024-03-22T09:35:06;4.30;;;3.90;;
46505;SDS011;32220;49.808;9.968;2024-03-22T09:37:33;5.00;;;4.37;;
46505;SDS011;32220;49.808;9.968;2024-03-22T09:40:00;3.93;;;3.53;;
46505;SDS011;32220;49.808;9.968;2024-03-22T09:42:27;4.90;;;3.63;;
46505;SDS011;32220;49.808;9.968;2024-03-22T09:44:58;4.53;;;3.17;;
46505;SDS011;32220;49.808;9.968;2024-03-22T09:47:28;2.70;;;2.50;;
46505;SDS011;32220;49.808;9.968;2024-03-22T09:49:54;2.60;;;2.40;;
46505;SDS011;32220;49.808;9.968;2024-03-22T09:52:24;2.53;;;2.33;;
46505;SDS011;32220;49.808;9.968;2024-03-22T09:54:51;2.80;;;2.60;;
46505;SDS011;32220;49.808;9.968;2024-03-22T09:57:21;4.23;;;2.20;;
46505;SDS011;32220;49.808;9.968;2024-03-22T09:59:48;2.60;;;2.40;;
46505;SDS011;32220;49.808;9.968;2024-03-22T10:02:16;2.40;;;2.07;;
46505;SDS011;32220;49.808;9.968;2024-03-22T10:04:44;3.37;;;2.07;;
46505;SDS011;32220;49.808;9.968;2024-03-22T10:07:19;2.37;;;2.00;;
46505;SDS011;32220;49.808;9.968;2024-03-22T10:09:47;2.57;;;2.20;;
46505;SDS011;32220;49.808;9.968;2024-03-22T10:12:16;2.83;;;1.83;;
46505;SDS011;32220;49.808;9.968;2024-03-22T10:14:42;2.30;;;1.77;;
46505;SDS011;32220;49.808;9.968;2024-03-22T10:17:10;1.97;;;1.60;;
46505;SDS011;32220;49.808;9.968;2024-03-22T10:19:37;2.73;;;1.43;;
46505;SDS011;32220;49.808;9.968;2024-03-22T10:22:06;1.50;;;1.40;;
46505;SDS011;32220;49.808;9.968;2024-03-22T10:24:33;1.97;;;1.80;;
46505;SDS011;32220;49.808;9.968;2024-03-22T10:27:02;1.77;;;1.50;;
46505;SDS011;32220;49.808;9.968;2024-03-22T10:29:28;1.47;;;1.37;;
46505;SDS011;32220;49.808;9.968;2024-03-22T10:31:56;2.07;;;1.80;;
46505;SDS011;32220;49.808;9.968;2024-03-22T10:34:23;1.97;;;1.77;;
46505;SDS011;32220;49.808;9.968;2024-03-22T10:36:51;1.80;;;1.70;;
46505;SDS011;32220;49.808;9.968;2024-03-22T10:39:18;2.13;;;1.93;;
46505;SDS011;32220;49.808;9.968;2024-03-22T10:41:46;2.58;;;1.95;;
46505;SDS011;32220;49.808;9.968;2024-03-22T10:44:15;1.80;;;1.70;;
46505;SDS011;32220;49.808;9.968;2024-03-22T10:46:43;3.13;;;2.00;;
46505;SDS011;32220;49.808;9.968;2024-03-22T10:49:12;2.40;;;2.00;;
46505;SDS011;32220;49.808;9.968;2024-03-22T10:51:42;2.57;;;1.93;;
46505;SDS011;32220;49.808;9.968;2024-03-22T10:54:13;1.90;;;1.73;;
46505;SDS011;32220;49.808;9.968;2024-03-22T10:56:45;2.57;;;2.30;;
46505;SDS011;32220;49.808;9.968;2024-03-22T10:59:15;2.50;;;2.00;;
46505;SDS011;32220;49.808;9.968;2024-03-22T11:01:46;2.20;;;1.97;;
46505;SDS011;32220;49.808;9.968;2024-03-22T11:04:15;2.17;;;1.97;;
46505;SDS011;32220;49.808;9.968;2024-03-22T11:06:46;3.10;;;1.80;;
46505;SDS011;32220;49.808;9.968;2024-03-22T11:09:18;3.27;;;1.70;;
46505;SDS011;32220;49.808;9.968;2024-03-22T11:11:48;2.47;;;1.83;;
46505;SDS011;32220;49.808;9.968;2024-03-22T11:14:19;4.10;;;1.70;;
46505;SDS011;32220;49.808;9.968;2024-03-22T11:16:48;1.67;;;1.57;;
46505;SDS011;32220;49.808;9.968;2024-03-22T11:19:14;1.50;;;1.30;;
46505;SDS011;32220;49.808;9.968;2024-03-22T11:21:42;2.03;;;1.53;;
46505;SDS011;32220;49.808;9.968;2024-03-22T11:24:08;2.07;;;1.00;;
46505;SDS011;32220;49.808;9.968;2024-03-22T11:26:36;1.20;;;0.93;;
46505;SDS011;32220;49.808;9.968;2024-03-22T11:29:03;1.40;;;1.20;;
46505;SDS011;32220;49.808;9.968;2024-03-22T11:31:32;1.67;;;1.37;;
46505;SDS011;32220;49.808;9.968;2024-03-22T11:33:59;1.23;;;1.07;;
46505;SDS011;32220;49.808;9.968;2024-03-22T11:36:27;1.17;;;1.03;;
46505;SDS011;32220;49.808;9.968;2024-03-22T11:38:53;1.37;;;1.10;;
46505;SDS011;32220;49.808;9.968;2024-03-22T11:41:21;1.20;;;1.10;;
46505;SDS011;32220;49.808;9.968;2024-03-22T11:43:52;0.90;;;0.90;;
46505;SDS011;32220;49.808;9.968;2024-03-22T11:46:20;0.70;;;0.70;;
46505;SDS011;32220;49.808;9.968;2024-03-22T11:48:52;1.20;;;0.70;;
46505;SDS011;32220;49.808;9.968;2024-03-22T11:51:20;0.73;;;0.73;;
46505;SDS011;32220;49.808;9.968;2024-03-22T11:53:50;0.80;;;0.80;;
46505;SDS011;32220;49.808;9.968;2024-03-22T11:56:18;0.60;;;0.60;;
46505;SDS011;32220;49.808;9.968;2024-03-22T11:58:45;0.70;;;0.70;;
46505;SDS011;32220;49.808;9.968;2024-03-22T12:01:14;0.60;;;0.60;;
46505;SDS011;32220;49.808;9.968;2024-03-22T12:03:43;0.90;;;0.60;;
46505;SDS011;32220;49.808;9.968;2024-03-22T12:06:12;0.60;;;0.60;;
46505;SDS011;32220;49.808;9.968;2024-03-22T12:08:38;0.60;;;0.60;;
46505;SDS011;32220;49.808;9.968;2024-03-22T12:11:07;0.60;;;0.60;;
46505;SDS011;32220;49.808;9.968;2024-03-22T12:13:34;0.73;;;0.60;;
46505;SDS011;32220;49.808;9.968;2024-03-22T12:16:03;0.60;;;0.60;;
46505;SDS011;32220;49.808;9.968;2024-03-22T12:18:30;0.60;;;0.50;;
46505;SDS011;32220;49.808;9.968;2024-03-22T12:20:58;0.87;;;0.60;;
46505;SDS011;32220;49.808;9.968;2024-03-22T12:23:26;0.53;;;0.53;;
46505;SDS011;32220;49.808;9.968;2024-03-22T12:25:53;0.70;;;0.70;;
46505;SDS011;32220;49.808;9.968;2024-03-22T12:28:20;0.60;;;0.53;;
46505;SDS011;32220;49.808;9.968;2024-03-22T12:30:48;1.17;;;0.80;;
46505;SDS011;32220;49.808;9.968;2024-03-22T12:33:15;0.60;;;0.57;;
46505;SDS011;32220;49.808;9.968;2024-03-22T12:35:42;0.93;;;0.50;;
46505;SDS011;32220;49.808;9.968;2024-03-22T12:38:09;0.60;;;0.60;;
46505;SDS011;32220;49.808;9.968;2024-03-22T12:40:40;0.70;;;0.70;;
46505;SDS011;32220;49.808;9.968;2024-03-22T12:43:07;1.37;;;0.70;;
46505;SDS011;32220;49.808;9.968;2024-03-22T12:45:36;0.60;;;0.60;;
46505;SDS011;32220;49.808;9.968;2024-03-22T12:48:03;0.90;;;0.60;;
46505;SDS011;32220;49.808;9.968;2024-03-22T12:50:31;0.80;;;0.77;;
46505;SDS011;32220;49.808;9.968;2024-03-22T12:52:59;0.97;;;0.90;;
46505;SDS011;32220;49.808;9.968;2024-03-22T12:55:27;1.20;;;0.80;;
46505;SDS011;32220;49.808;9.968;2024-03-22T12:57:55;2.57;;;1.07;;
46505;SDS011;32220;49.808;9.968;2024-03-22T13:00:23;3.37;;;0.70;;
46505;SDS011;32220;49.808;9.968;2024-03-22T13:02:49;0.97;;;0.87;;
46505;SDS011;32220;49.808;9.968;2024-03-22T13:05:18;1.00;;;1.00;;
46505;SDS011;32220;49.808;9.968;2024-03-22T13:07:45;1.20;;;1.00;;
46505;SDS011;32220;49.808;9.968;2024-03-22T13:10:12;1.37;;;1.13;;
46505;SDS011;32220;49.808;9.968;2024-03-22T13:12:39;1.37;;;1.20;;
46505;SDS011;32220;49.808;9.968;2024-03-22T13:15:08;1.10;;;1.00;;
46505;SDS011;32220;49.808;9.968;2024-03-22T13:17:35;1.27;;;1.17;;
46505;SDS011;32220;49.808;9.968;2024-03-22T13:20:03;1.40;;;1.30;;
46505;SDS011;32220;49.808;9.968;2024-03-22T13:22:36;1.60;;;1.33;;
46505;SDS011;32220;49.808;9.968;2024-03-22T13:25:04;1.30;;;1.20;;
46505;SDS011;32220;49.808;9.968;2024-03-22T13:27:33;2.53;;;1.50;;
46505;SDS011;32220;49.808;9.968;2024-03-22T13:30:00;2.63;;;1.67;;
46505;SDS011;32220;49.808;9.968;2024-03-22T13:32:28;1.57;;;1.47;;
46505;SDS011;32220;49.808;9.968;2024-03-22T13:34:57;2.07;;;1.40;;
46505;SDS011;32220;49.808;9.968;2024-03-22T13:37:23;2.13;;;1.63;;
46505;SDS011;32220;49.808;9.968;2024-03-22T13:39:50;1.83;;;1.70;;
46505;SDS011;32220;49.808;9.968;2024-03-22T13:42:17;2.47;;;2.03;;
46505;SDS011;32220;49.808;9.968;2024-03-22T13:44:45;2.87;;;1.90;;
46505;SDS011;32220;49.808;9.968;2024-03-22T13:47:12;2.60;;;2.20;;
46505;SDS011;32220;49.808;9.968;2024-03-22T13:49:40;1.70;;;1.60;;
46505;SDS011;32220;49.808;9.968;2024-03-22T13:52:08;2.20;;;2.00;;
46505;SDS011;32220;49.808;9.968;2024-03-22T13:54:36;2.07;;;1.87;;
46505;SDS011;32220;49.808;9.968;2024-03-22T13:57:03;2.23;;;1.70;;
46505;SDS011;32220;49.808;9.968;2024-03-22T13:59:30;2.20;;;2.00;;
46505;SDS011;32220;49.808;9.968;2024-03-22T14:01:57;2.07;;;1.83;;
46505;SDS011;32220;49.808;9.968;2024-03-22T14:04:24;2.47;;;1.80;;
46505;SDS011;32220;49.808;9.968;2024-03-22T14:06:53;2.60;;;2.40;;
46505;SDS011;32220;49.808;9.968;2024-03-22T14:09:21;2.50;;;2.03;;
46505;SDS011;32220;49.808;9.968;2024-03-22T14:11:47;3.23;;;2.20;;
46505;SDS011;32220;49.808;9.968;2024-03-22T14:14:14;6.77;;;2.13;;
46505;SDS011;32220;49.808;9.968;2024-03-22T14:16:42;2.03;;;1.70;;
46505;SDS011;32220;49.808;9.968;2024-03-22T14:19:08;2.00;;;1.77;;
46505;SDS011;32220;49.808;9.968;2024-03-22T14:21:36;2.03;;;1.40;;
46505;SDS011;32220;49.808;9.968;2024-03-22T14:24:05;3.30;;;1.70;;
46505;SDS011;32220;49.808;9.968;2024-03-22T14:26:33;1.73;;;1.30;;
46505;SDS011;32220;49.808;9.968;2024-03-22T14:29:00;1.00;;;0.90;;
46505;SDS011;32220;49.808;9.968;2024-03-22T14:31:27;1.80;;;1.27;;
46505;SDS011;32220;49.808;9.968;2024-03-22T14:33:53;1.07;;;0.97;;
46505;SDS011;32220;49.808;9.968;2024-03-22T14:36:21;1.10;;;1.00;;
46505;SDS011;32220;49.808;9.968;2024-03-22T14:38:47;1.53;;;0.97;;
46505;SDS011;32220;49.808;9.968;2024-03-22T14:41:16;1.83;;;1.07;;
46505;SDS011;32220;49.808;9.968;2024-03-22T14:43:44;1.87;;;1.20;;